sensor_id;sensor_type;location;lat;lon;timestamp;P1;durP1;ratioP1;P2;durP2;ratioP2
45730;SDS011;31440;48.584;13.460;2022-07-29T00:00:04;6.15;;;4.05;;
45730;SDS011;31440;48.584;13.460;2022-07-29T00:02:31;4.50;;;4.10;;
45730;SDS011;31440;48.584;13.460;2022-07-29T00:04:57;5.03;;;4.50;;
45730;SDS011;31440;48.584;13.460;2022-07-29T00:07:23;5.20;;;3.90;;
45730;SDS011;31440;48.584;13.460;2022-07-29T00:09:48;4.75;;;4.07;;
45730;SDS011;31440;48.584;13.460;2022-07-29T00:12:14;4.32;;;3.95;;
45730;SDS011;31440;48.584;13.460;2022-07-29T00:14:39;4.18;;;3.78;;
45730;SDS011;31440;48.584;13.460;2022-07-29T00:17:05;4.95;;;4.13;;
45730;SDS011;31440;48.584;13.460;2022-07-29T00:19:31;4.47;;;4.07;;
45730;SDS011;31440;48.584;13.460;2022-07-29T00:21:56;5.53;;;4.63;;
45730;SDS011;31440;48.584;13.460;2022-07-29T00:24:22;4.60;;;4.20;;
45730;SDS011;31440;48.584;13.460;2022-07-29T00:26:47;4.38;;;3.97;;
45730;SDS011;31440;48.584;13.460;2022-07-29T00:29:13;4.38;;;3.97;;
45730;SDS011;31440;48.584;13.460;2022-07-29T00:31:38;4.45;;;4.05;;
45730;SDS011;31440;48.584;13.460;2022-07-29T00:34:04;5.30;;;4.30;;
45730;SDS011;31440;48.584;13.460;2022-07-29T00:36:31;4.70;;;4.30;;
45730;SDS011;31440;48.584;13.460;2022-07-29T00:38:57;4.35;;;3.90;;
45730;SDS011;31440;48.584;13.460;2022-07-29T00:41:22;4.40;;;3.97;;
45730;SDS011;31440;48.584;13.460;2022-07-29T00:43:48;4.50;;;4.10;;
45730;SDS011;31440;48.584;13.460;2022-07-29T00:46:14;4.40;;;4.00;;
45730;SDS011;31440;48.584;13.460;2022-07-29T00:48:39;4.35;;;3.92;;
45730;SDS011;31440;48.584;13.460;2022-07-29T00:51:05;4.43;;;4.00;;
45730;SDS011;31440;48.584;13.460;2022-07-29T00:53:32;7.90;;;6.00;;
45730;SDS011;31440;48.584;13.460;2022-07-29T00:56:00;4.63;;;4.22;;
45730;SDS011;31440;48.584;13.460;2022-07-29T00:58:26;4.57;;;4.18;;
45730;SDS011;31440;48.584;13.460;2022-07-29T01:00:52;5.30;;;4.53;;
45730;SDS011;31440;48.584;13.460;2022-07-29T01:03:17;5.22;;;4.40;;
45730;SDS011;31440;48.584;13.460;2022-07-29T01:05:43;5.15;;;4.65;;
45730;SDS011;31440;48.584;13.460;2022-07-29T01:08:11;4.97;;;4.55;;
45730;SDS011;31440;48.584;13.460;2022-07-29T01:10:39;4.90;;;4.40;;
45730;SDS011;31440;48.584;13.460;2022-07-29T01:13:06;6.93;;;5.03;;
45730;SDS011;31440;48.584;13.460;2022-07-29T01:15:33;5.72;;;4.47;;
45730;SDS011;31440;48.584;13.460;2022-07-29T01:18:11;5.05;;;4.55;;
45730;SDS011;31440;48.584;13.460;2022-07-29T01:20:58;6.28;;;4.72;;
45730;SDS011;31440;48.584;13.460;2022-07-29T01:26:51;12.32;;;5.38;;
45730;SDS011;31440;48.584;13.460;2022-07-29T01:29:24;6.43;;;5.18;;
45730;SDS011;31440;48.584;13.460;2022-07-29T01:40:36;15.25;;;6.30;;
45730;SDS011;31440;48.584;13.460;2022-07-29T01:43:27;10.15;;;6.95;;
45730;SDS011;31440;48.584;13.460;2022-07-29T01:46:11;8.80;;;6.05;;
45730;SDS011;31440;48.584;13.460;2022-07-29T01:48:41;8.52;;;7.18;;
45730;SDS011;31440;48.584;13.460;2022-07-29T01:54:12;9.25;;;7.10;;
45730;SDS011;31440;48.584;13.460;2022-07-29T01:56:42;14.32;;;8.13;;
45730;SDS011;31440;48.584;13.460;2022-07-29T01:59:10;8.88;;;7.93;;
45730;SDS011;31440;48.584;13.460;2022-07-29T02:01:37;8.07;;;6.82;;
45730;SDS011;31440;48.584;13.460;2022-07-29T02:04:06;8.25;;;6.18;;
45730;SDS011;31440;48.584;13.460;2022-07-29T02:06:35;7.60;;;6.90;;
45730;SDS011;31440;48.584;13.460;2022-07-29T02:09:03;7.53;;;6.55;;
45730;SDS011;31440;48.584;13.460;2022-07-29T02:11:31;7.70;;;6.43;;
45730;SDS011;31440;48.584;13.460;2022-07-29T02:14:00;7.10;;;6.30;;
45730;SDS011;31440;48.584;13.460;2022-07-29T02:16:26;7.30;;;5.85;;
45730;SDS011;31440;48.584;13.460;2022-07-29T02:18:55;7.55;;;6.28;;
45730;SDS011;31440;48.584;13.460;2022-07-29T02:21:23;7.80;;;6.40;;
45730;SDS011;31440;48.584;13.460;2022-07-29T02:23:52;7.22;;;6.25;;
45730;SDS011;31440;48.584;13.460;2022-07-29T02:26:22;7.13;;;6.25;;
45730;SDS011;31440;48.584;13.460;2022-07-29T02:28:54;8.33;;;5.90;;
45730;SDS011;31440;48.584;13.460;2022-07-29T02:31:23;6.80;;;6.20;;
45730;SDS011;31440;48.584;13.460;2022-07-29T02:33:51;11.32;;;6.72;;
45730;SDS011;31440;48.584;13.460;2022-07-29T02:36:21;6.35;;;5.85;;
45730;SDS011;31440;48.584;13.460;2022-07-29T02:38:48;10.40;;;6.55;;
45730;SDS011;31440;48.584;13.460;2022-07-29T02:41:28;6.25;;;5.57;;
45730;SDS011;31440;48.584;13.460;2022-07-29T02:44:01;7.55;;;6.80;;
45730;SDS011;31440;48.584;13.460;2022-07-29T02:49:09;10.27;;;6.63;;
45730;SDS011;31440;48.584;13.460;2022-07-29T02:51:49;9.85;;;6.30;;
45730;SDS011;31440;48.584;13.460;2022-07-29T02:54:20;6.82;;;6.13;;
45730;SDS011;31440;48.584;13.460;2022-07-29T02:59:20;8.27;;;7.22;;
45730;SDS011;31440;48.584;13.460;2022-07-29T03:01:49;6.93;;;6.13;;
45730;SDS011;31440;48.584;13.460;2022-07-29T03:04:17;7.00;;;5.72;;
45730;SDS011;31440;48.584;13.460;2022-07-29T03:06:45;6.18;;;5.57;;
45730;SDS011;31440;48.584;13.460;2022-07-29T03:09:11;7.63;;;5.93;;
45730;SDS011;31440;48.584;13.460;2022-07-29T03:11:39;7.00;;;6.13;;
45730;SDS011;31440;48.584;13.460;2022-07-29T03:14:07;7.55;;;6.75;;
45730;SDS011;31440;48.584;13.460;2022-07-29T03:16:33;7.25;;;6.22;;
45730;SDS011;31440;48.584;13.460;2022-07-29T03:19:01;9.02;;;7.25;;
45730;SDS011;31440;48.584;13.460;2022-07-29T03:21:29;9.95;;;6.80;;
45730;SDS011;31440;48.584;13.460;2022-07-29T03:23:54;7.85;;;7.05;;
45730;SDS011;31440;48.584;13.460;2022-07-29T03:26:20;12.57;;;7.93;;
45730;SDS011;31440;48.584;13.460;2022-07-29T03:28:46;9.40;;;6.53;;
45730;SDS011;31440;48.584;13.460;2022-07-29T03:31:11;10.18;;;6.93;;
45730;SDS011;31440;48.584;13.460;2022-07-29T03:33:37;10.88;;;6.68;;
45730;SDS011;31440;48.584;13.460;2022-07-29T03:36:03;7.72;;;6.95;;
45730;SDS011;31440;48.584;13.460;2022-07-29T03:38:29;11.15;;;7.45;;
45730;SDS011;31440;48.584;13.460;2022-07-29T03:41:00;7.85;;;7.00;;
45730;SDS011;31440;48.584;13.460;2022-07-29T03:43:30;7.85;;;6.93;;
45730;SDS011;31440;48.584;13.460;2022-07-29T03:45:59;11.50;;;7.80;;
45730;SDS011;31440;48.584;13.460;2022-07-29T03:48:26;7.60;;;6.82;;
45730;SDS011;31440;48.584;13.460;2022-07-29T03:50:56;8.10;;;7.25;;
45730;SDS011;31440;48.584;13.460;2022-07-29T03:53:22;7.20;;;6.60;;
45730;SDS011;31440;48.584;13.460;2022-07-29T03:55:48;6.97;;;6.30;;
45730;SDS011;31440;48.584;13.460;2022-07-29T03:58:17;7.97;;;7.18;;
45730;SDS011;31440;48.584;13.460;2022-07-29T04:00:44;8.60;;;7.15;;
45730;SDS011;31440;48.584;13.460;2022-07-29T04:03:11;7.97;;;7.18;;
45730;SDS011;31440;48.584;13.460;2022-07-29T04:05:38;9.07;;;7.00;;
45730;SDS011;31440;48.584;13.460;2022-07-29T04:08:04;8.85;;;7.43;;
45730;SDS011;31440;48.584;13.460;2022-07-29T04:10:30;10.07;;;7.85;;
45730;SDS011;31440;48.584;13.460;2022-07-29T04:12:55;7.97;;;7.00;;
45730;SDS011;31440;48.584;13.460;2022-07-29T04:15:21;8.85;;;7.53;;
45730;SDS011;31440;48.584;13.460;2022-07-29T04:17:46;9.25;;;8.20;;
45730;SDS011;31440;48.584;13.460;2022-07-29T04:20:12;10.98;;;7.63;;
45730;SDS011;31440;48.584;13.460;2022-07-29T04:22:38;8.50;;;7.60;;
45730;SDS011;31440;48.584;13.460;2022-07-29T04:25:05;8.57;;;6.97;;
45730;SDS011;31440;48.584;13.460;2022-07-29T04:27:31;8.85;;;6.70;;
45730;SDS011;31440;48.584;13.460;2022-07-29T04:29:56;9.25;;;7.18;;
45730;SDS011;31440;48.584;13.460;2022-07-29T04:32:22;7.88;;;6.55;;
45730;SDS011;31440;48.584;13.460;2022-07-29T04:34:48;7.47;;;6.78;;
45730;SDS011;31440;48.584;13.460;2022-07-29T04:37:13;7.13;;;6.43;;
45730;SDS011;31440;48.584;13.460;2022-07-29T04:39:39;7.30;;;6.60;;
45730;SDS011;31440;48.584;13.460;2022-07-29T04:42:04;7.72;;;6.97;;
45730;SDS011;31440;48.584;13.460;2022-07-29T04:44:30;8.80;;;6.68;;
45730;SDS011;31440;48.584;13.460;2022-07-29T04:46:56;9.15;;;6.82;;
45730;SDS011;31440;48.584;13.460;2022-07-29T04:49:22;8.23;;;6.72;;
45730;SDS011;31440;48.584;13.460;2022-07-29T04:51:48;8.18;;;7.38;;
45730;SDS011;31440;48.584;13.460;2022-07-29T04:54:14;8.35;;;7.55;;
45730;SDS011;31440;48.584;13.460;2022-07-29T04:56:39;7.93;;;7.10;;
45730;SDS011;31440;48.584;13.460;2022-07-29T04:59:05;9.00;;;7.45;;
45730;SDS011;31440;48.584;13.460;2022-07-29T05:01:30;8.70;;;7.10;;
45730;SDS011;31440;48.584;13.460;2022-07-29T05:03:56;10.45;;;6.05;;
45730;SDS011;31440;48.584;13.460;2022-07-29T05:06:21;7.22;;;6.53;;
45730;SDS011;31440;48.584;13.460;2022-07-29T05:08:47;7.80;;;7.00;;
45730;SDS011;31440;48.584;13.460;2022-07-29T05:11:13;8.27;;;6.75;;
45730;SDS011;31440;48.584;13.460;2022-07-29T05:13:38;8.38;;;7.50;;
45730;SDS011;31440;48.584;13.460;2022-07-29T05:16:04;8.05;;;6.78;;
45730;SDS011;31440;48.584;13.460;2022-07-29T05:18:30;8.20;;;7.40;;
45730;SDS011;31440;48.584;13.460;2022-07-29T05:20:55;11.85;;;7.78;;
45730;SDS011;31440;48.584;13.460;2022-07-29T05:23:22;12.25;;;7.60;;
45730;SDS011;31440;48.584;13.460;2022-07-29T05:25:48;8.77;;;7.85;;
45730;SDS011;31440;48.584;13.460;2022-07-29T05:28:13;13.05;;;7.90;;
45730;SDS011;31440;48.584;13.460;2022-07-29T05:30:39;8.38;;;7.45;;
45730;SDS011;31440;48.584;13.460;2022-07-29T05:33:05;9.32;;;7.72;;
45730;SDS011;31440;48.584;13.460;2022-07-29T05:35:30;8.55;;;7.65;;
45730;SDS011;31440;48.584;13.460;2022-07-29T05:37:56;7.80;;;7.00;;
45730;SDS011;31440;48.584;13.460;2022-07-29T05:40:21;8.20;;;7.13;;
45730;SDS011;31440;48.584;13.460;2022-07-29T05:42:47;10.98;;;8.23;;
45730;SDS011;31440;48.584;13.460;2022-07-29T05:45:13;7.15;;;6.45;;
45730;SDS011;31440;48.584;13.460;2022-07-29T05:47:38;10.23;;;6.95;;
45730;SDS011;31440;48.584;13.460;2022-07-29T05:50:04;8.07;;;7.00;;
45730;SDS011;31440;48.584;13.460;2022-07-29T05:52:30;9.18;;;7.00;;
45730;SDS011;31440;48.584;13.460;2022-07-29T05:54:55;9.30;;;7.38;;
45730;SDS011;31440;48.584;13.460;2022-07-29T05:57:22;7.50;;;6.82;;
45730;SDS011;31440;48.584;13.460;2022-07-29T05:59:49;8.13;;;6.82;;
45730;SDS011;31440;48.584;13.460;2022-07-29T06:02:15;7.88;;;7.07;;
45730;SDS011;31440;48.584;13.460;2022-07-29T06:04:42;7.72;;;6.95;;
45730;SDS011;31440;48.584;13.460;2022-07-29T06:07:07;7.60;;;6.88;;
45730;SDS011;31440;48.584;13.460;2022-07-29T06:09:33;7.25;;;6.57;;
45730;SDS011;31440;48.584;13.460;2022-07-29T06:12:00;10.27;;;6.60;;
45730;SDS011;31440;48.584;13.460;2022-07-29T06:14:26;9.40;;;6.65;;
45730;SDS011;31440;48.584;13.460;2022-07-29T06:16:52;7.38;;;6.68;;
45730;SDS011;31440;48.584;13.460;2022-07-29T06:19:18;7.60;;;6.88;;
45730;SDS011;31440;48.584;13.460;2022-07-29T06:21:45;7.50;;;6.70;;
45730;SDS011;31440;48.584;13.460;2022-07-29T06:24:14;8.32;;;7.07;;
45730;SDS011;31440;48.584;13.460;2022-07-29T06:26:41;8.68;;;6.78;;
45730;SDS011;31440;48.584;13.460;2022-07-29T06:29:07;7.45;;;6.20;;
45730;SDS011;31440;48.584;13.460;2022-07-29T06:31:33;8.05;;;5.75;;
45730;SDS011;31440;48.584;13.460;2022-07-29T06:33:58;9.73;;;7.25;;
45730;SDS011;31440;48.584;13.460;2022-07-29T06:36:24;7.63;;;6.50;;
45730;SDS011;31440;48.584;13.460;2022-07-29T06:38:50;10.57;;;7.15;;
45730;SDS011;31440;48.584;13.460;2022-07-29T06:41:15;7.03;;;6.32;;
45730;SDS011;31440;48.584;13.460;2022-07-29T06:43:41;10.98;;;6.13;;
45730;SDS011;31440;48.584;13.460;2022-07-29T06:46:09;7.05;;;6.10;;
45730;SDS011;31440;48.584;13.460;2022-07-29T06:48:38;6.72;;;6.03;;
45730;SDS011;31440;48.584;13.460;2022-07-29T06:51:05;7.22;;;5.63;;
45730;SDS011;31440;48.584;13.460;2022-07-29T06:53:31;7.22;;;6.30;;
45730;SDS011;31440;48.584;13.460;2022-07-29T06:55:58;6.35;;;5.40;;
45730;SDS011;31440;48.584;13.460;2022-07-29T06:58:25;6.30;;;5.68;;
45730;SDS011;31440;48.584;13.460;2022-07-29T07:00:55;6.75;;;6.15;;
45730;SDS011;31440;48.584;13.460;2022-07-29T07:03:22;7.30;;;6.32;;
45730;SDS011;31440;48.584;13.460;2022-07-29T07:05:48;6.65;;;5.93;;
45730;SDS011;31440;48.584;13.460;2022-07-29T07:08:14;6.68;;;5.72;;
45730;SDS011;31440;48.584;13.460;2022-07-29T07:10:41;6.93;;;6.25;;
45730;SDS011;31440;48.584;13.460;2022-07-29T07:13:07;6.40;;;5.90;;
45730;SDS011;31440;48.584;13.460;2022-07-29T07:15:33;5.72;;;5.22;;
45730;SDS011;31440;48.584;13.460;2022-07-29T07:18:00;6.07;;;5.55;;
45730;SDS011;31440;48.584;13.460;2022-07-29T07:20:25;6.90;;;6.20;;
45730;SDS011;31440;48.584;13.460;2022-07-29T07:22:51;7.00;;;5.82;;
45730;SDS011;31440;48.584;13.460;2022-07-29T07:25:17;7.18;;;6.00;;
45730;SDS011;31440;48.584;13.460;2022-07-29T07:27:43;6.90;;;5.78;;
45730;SDS011;31440;48.584;13.460;2022-07-29T07:30:09;7.47;;;6.00;;
45730;SDS011;31440;48.584;13.460;2022-07-29T07:32:36;5.40;;;4.90;;
45730;SDS011;31440;48.584;13.460;2022-07-29T07:35:02;8.55;;;5.78;;
45730;SDS011;31440;48.584;13.460;2022-07-29T07:37:30;5.70;;;5.20;;
45730;SDS011;31440;48.584;13.460;2022-07-29T07:39:55;8.48;;;5.47;;
45730;SDS011;31440;48.584;13.460;2022-07-29T07:42:21;5.30;;;4.80;;
45730;SDS011;31440;48.584;13.460;2022-07-29T07:44:47;6.70;;;6.10;;
45730;SDS011;31440;48.584;13.460;2022-07-29T07:47:14;9.70;;;6.28;;
45730;SDS011;31440;48.584;13.460;2022-07-29T07:49:40;7.82;;;5.30;;
45730;SDS011;31440;48.584;13.460;2022-07-29T07:52:06;5.57;;;4.97;;
45730;SDS011;31440;48.584;13.460;2022-07-29T07:54:31;5.78;;;4.55;;
45730;SDS011;31440;48.584;13.460;2022-07-29T07:56:57;6.53;;;4.90;;
45730;SDS011;31440;48.584;13.460;2022-07-29T07:59:23;4.65;;;4.22;;
45730;SDS011;31440;48.584;13.460;2022-07-29T08:01:49;6.75;;;4.38;;
45730;SDS011;31440;48.584;13.460;2022-07-29T08:04:15;8.38;;;4.40;;
45730;SDS011;31440;48.584;13.460;2022-07-29T08:06:41;4.97;;;4.07;;
45730;SDS011;31440;48.584;13.460;2022-07-29T08:09:07;5.65;;;4.95;;
45730;SDS011;31440;48.584;13.460;2022-07-29T08:11:32;4.65;;;4.30;;
45730;SDS011;31440;48.584;13.460;2022-07-29T08:13:58;6.15;;;4.50;;
45730;SDS011;31440;48.584;13.460;2022-07-29T08:16:26;4.32;;;3.85;;
45730;SDS011;31440;48.584;13.460;2022-07-29T08:18:52;4.60;;;4.20;;
45730;SDS011;31440;48.584;13.460;2022-07-29T08:21:22;6.07;;;4.53;;
45730;SDS011;31440;48.584;13.460;2022-07-29T08:23:49;9.48;;;4.35;;
45730;SDS011;31440;48.584;13.460;2022-07-29T08:26:17;5.40;;;4.55;;
45730;SDS011;31440;48.584;13.460;2022-07-29T08:28:44;4.07;;;3.72;;
45730;SDS011;31440;48.584;13.460;2022-07-29T08:31:11;3.90;;;3.40;;
45730;SDS011;31440;48.584;13.460;2022-07-29T08:33:38;4.60;;;3.92;;
45730;SDS011;31440;48.584;13.460;2022-07-29T08:36:04;3.88;;;3.10;;
45730;SDS011;31440;48.584;13.460;2022-07-29T08:38:31;3.60;;;3.10;;
45730;SDS011;31440;48.584;13.460;2022-07-29T08:40:57;3.40;;;3.10;;
45730;SDS011;31440;48.584;13.460;2022-07-29T08:43:23;3.92;;;3.53;;
45730;SDS011;31440;48.584;13.460;2022-07-29T08:45:49;4.65;;;3.53;;
45730;SDS011;31440;48.584;13.460;2022-07-29T08:48:17;6.65;;;3.20;;
45730;SDS011;31440;48.584;13.460;2022-07-29T08:50:45;3.47;;;3.17;;
45730;SDS011;31440;48.584;13.460;2022-07-29T08:53:16;3.50;;;3.20;;
45730;SDS011;31440;48.584;13.460;2022-07-29T08:55:43;3.17;;;2.90;;
45730;SDS011;31440;48.584;13.460;2022-07-29T08:58:13;3.72;;;3.13;;
45730;SDS011;31440;48.584;13.460;2022-07-29T09:00:50;4.43;;;3.03;;
45730;SDS011;31440;48.584;13.460;2022-07-29T09:03:18;3.72;;;3.35;;
45730;SDS011;31440;48.584;13.460;2022-07-29T09:05:45;5.40;;;3.28;;
45730;SDS011;31440;48.584;13.460;2022-07-29T09:08:15;6.00;;;3.60;;
45730;SDS011;31440;48.584;13.460;2022-07-29T09:10:42;3.15;;;2.85;;
45730;SDS011;31440;48.584;13.460;2022-07-29T09:13:08;3.22;;;2.92;;
45730;SDS011;31440;48.584;13.460;2022-07-29T09:15:34;3.50;;;3.20;;
45730;SDS011;31440;48.584;13.460;2022-07-29T09:18:00;3.65;;;3.35;;
45730;SDS011;31440;48.584;13.460;2022-07-29T09:20:27;3.63;;;3.33;;
45730;SDS011;31440;48.584;13.460;2022-07-29T09:23:13;3.20;;;2.83;;
45730;SDS011;31440;48.584;13.460;2022-07-29T09:25:39;4.63;;;3.20;;
45730;SDS011;31440;48.584;13.460;2022-07-29T09:28:07;3.35;;;3.05;;
45730;SDS011;31440;48.584;13.460;2022-07-29T09:30:33;5.22;;;3.03;;
45730;SDS011;31440;48.584;13.460;2022-07-29T09:33:02;4.25;;;3.20;;
45730;SDS011;31440;48.584;13.460;2022-07-29T09:35:28;3.17;;;2.88;;
45730;SDS011;31440;48.584;13.460;2022-07-29T09:37:55;3.30;;;3.00;;
45730;SDS011;31440;48.584;13.460;2022-07-29T09:40:23;3.63;;;3.33;;
45730;SDS011;31440;48.584;13.460;2022-07-29T09:42:50;3.17;;;2.90;;
45730;SDS011;31440;48.584;13.460;2022-07-29T09:45:29;3.40;;;3.10;;
45730;SDS011;31440;48.584;13.460;2022-07-29T09:47:57;5.28;;;3.10;;
45730;SDS011;31440;48.584;13.460;2022-07-29T09:50:41;6.57;;;3.00;;
45730;SDS011;31440;48.584;13.460;2022-07-29T09:53:09;5.45;;;2.50;;
45730;SDS011;31440;48.584;13.460;2022-07-29T09:55:45;4.43;;;3.25;;
45730;SDS011;31440;48.584;13.460;2022-07-29T09:58:18;5.70;;;3.03;;
45730;SDS011;31440;48.584;13.460;2022-07-29T10:00:46;3.30;;;2.53;;
45730;SDS011;31440;48.584;13.460;2022-07-29T10:03:13;5.95;;;3.17;;
45730;SDS011;31440;48.584;13.460;2022-07-29T10:05:40;4.00;;;2.88;;
45730;SDS011;31440;48.584;13.460;2022-07-29T10:08:07;3.53;;;3.22;;
45730;SDS011;31440;48.584;13.460;2022-07-29T10:10:37;2.97;;;2.67;;
45730;SDS011;31440;48.584;13.460;2022-07-29T10:13:08;3.58;;;3.25;;
45730;SDS011;31440;48.584;13.460;2022-07-29T10:15:36;3.45;;;3.05;;
45730;SDS011;31440;48.584;13.460;2022-07-29T10:18:09;3.70;;;2.75;;
45730;SDS011;31440;48.584;13.460;2022-07-29T10:20:35;4.70;;;2.58;;
45730;SDS011;31440;48.584;13.460;2022-07-29T10:23:02;4.60;;;3.10;;
45730;SDS011;31440;48.584;13.460;2022-07-29T10:25:29;3.33;;;2.97;;
45730;SDS011;31440;48.584;13.460;2022-07-29T10:27:55;4.75;;;2.45;;
45730;SDS011;31440;48.584;13.460;2022-07-29T10:30:21;3.25;;;2.83;;
45730;SDS011;31440;48.584;13.460;2022-07-29T10:43:46;4.57;;;2.85;;
45730;SDS011;31440;48.584;13.460;2022-07-29T10:46:12;4.75;;;2.90;;
45730;SDS011;31440;48.584;13.460;2022-07-29T10:59:42;4.57;;;2.67;;
45730;SDS011;31440;48.584;13.460;2022-07-29T11:05:08;3.75;;;3.42;;
45730;SDS011;31440;48.584;13.460;2022-07-29T11:07:37;3.97;;;2.90;;
45730;SDS011;31440;48.584;13.460;2022-07-29T11:10:18;3.15;;;2.85;;
45730;SDS011;31440;48.584;13.460;2022-07-29T11:12:45;4.63;;;2.50;;
45730;SDS011;31440;48.584;13.460;2022-07-29T11:15:16;2.70;;;2.50;;
45730;SDS011;31440;48.584;13.460;2022-07-29T11:40:25;2.88;;;2.67;;
45730;SDS011;31440;48.584;13.460;2022-07-29T11:45:00;4.68;;;2.50;;
45730;SDS011;31440;48.584;13.460;2022-07-29T11:47:30;3.38;;;3.05;;
45730;SDS011;31440;48.584;13.460;2022-07-29T11:49:56;2.92;;;2.28;;
45730;SDS011;31440;48.584;13.460;2022-07-29T11:52:23;2.78;;;2.58;;
45730;SDS011;31440;48.584;13.460;2022-07-29T11:55:03;2.67;;;2.47;;
45730;SDS011;31440;48.584;13.460;2022-07-29T11:57:30;3.80;;;2.70;;
45730;SDS011;31440;48.584;13.460;2022-07-29T11:59:55;2.30;;;2.10;;
45730;SDS011;31440;48.584;13.460;2022-07-29T12:02:22;2.72;;;2.53;;
45730;SDS011;31440;48.584;13.460;2022-07-29T12:04:52;2.33;;;2.13;;
45730;SDS011;31440;48.584;13.460;2022-07-29T12:07:26;2.65;;;2.45;;
45730;SDS011;31440;48.584;13.460;2022-07-29T12:09:56;2.72;;;2.53;;
45730;SDS011;31440;48.584;13.460;2022-07-29T12:12:22;2.33;;;2.13;;
45730;SDS011;31440;48.584;13.460;2022-07-29T12:14:47;4.03;;;2.20;;
45730;SDS011;31440;48.584;13.460;2022-07-29T12:19:53;3.30;;;2.92;;
45730;SDS011;31440;48.584;13.460;2022-07-29T12:24:55;2.58;;;2.38;;
45730;SDS011;31440;48.584;13.460;2022-07-29T12:27:24;4.07;;;2.45;;
45730;SDS011;31440;48.584;13.460;2022-07-29T12:29:57;2.40;;;2.20;;
45730;SDS011;31440;48.584;13.460;2022-07-29T12:32:30;3.45;;;2.40;;
45730;SDS011;31440;48.584;13.460;2022-07-29T12:35:07;3.03;;;2.33;;
45730;SDS011;31440;48.584;13.460;2022-07-29T12:37:35;2.35;;;2.15;;
45730;SDS011;31440;48.584;13.460;2022-07-29T12:40:03;3.33;;;2.15;;
45730;SDS011;31440;48.584;13.460;2022-07-29T12:42:31;2.25;;;2.03;;
45730;SDS011;31440;48.584;13.460;2022-07-29T12:44:57;2.70;;;2.50;;
45730;SDS011;31440;48.584;13.460;2022-07-29T12:47:23;2.38;;;2.17;;
45730;SDS011;31440;48.584;13.460;2022-07-29T12:49:49;2.58;;;2.08;;
45730;SDS011;31440;48.584;13.460;2022-07-29T12:52:25;4.85;;;2.15;;
45730;SDS011;31440;48.584;13.460;2022-07-29T12:54:58;2.38;;;2.25;;
45730;SDS011;31440;48.584;13.460;2022-07-29T12:57:24;3.45;;;2.97;;
45730;SDS011;31440;48.584;13.460;2022-07-29T13:02:34;3.92;;;2.13;;
45730;SDS011;31440;48.584;13.460;2022-07-29T13:05:00;3.38;;;2.33;;
45730;SDS011;31440;48.584;13.460;2022-07-29T13:07:27;2.60;;;2.40;;
45730;SDS011;31440;48.584;13.460;2022-07-29T13:10:09;3.78;;;2.65;;
45730;SDS011;31440;48.584;13.460;2022-07-29T13:13:01;4.00;;;2.25;;
45730;SDS011;31440;48.584;13.460;2022-07-29T13:15:39;2.58;;;2.35;;
45730;SDS011;31440;48.584;13.460;2022-07-29T13:18:29;2.80;;;1.83;;
45730;SDS011;31440;48.584;13.460;2022-07-29T13:20:56;2.65;;;2.40;;
45730;SDS011;31440;48.584;13.460;2022-07-29T13:23:22;2.53;;;2.25;;
45730;SDS011;31440;48.584;13.460;2022-07-29T13:25:47;2.40;;;2.20;;
45730;SDS011;31440;48.584;13.460;2022-07-29T13:28:13;2.15;;;1.90;;
45730;SDS011;31440;48.584;13.460;2022-07-29T13:30:39;3.38;;;1.95;;
45730;SDS011;31440;48.584;13.460;2022-07-29T13:33:05;2.65;;;2.10;;
45730;SDS011;31440;48.584;13.460;2022-07-29T13:35:30;2.20;;;2.00;;
45730;SDS011;31440;48.584;13.460;2022-07-29T13:37:56;2.55;;;2.35;;
45730;SDS011;31440;48.584;13.460;2022-07-29T13:40:21;2.55;;;2.15;;
45730;SDS011;31440;48.584;13.460;2022-07-29T13:42:47;2.45;;;2.25;;
45730;SDS011;31440;48.584;13.460;2022-07-29T13:45:13;2.42;;;2.22;;
45730;SDS011;31440;48.584;13.460;2022-07-29T13:47:38;3.05;;;2.28;;
45730;SDS011;31440;48.584;13.460;2022-07-29T13:50:05;5.78;;;2.33;;
45730;SDS011;31440;48.584;13.460;2022-07-29T13:52:32;2.25;;;2.08;;
45730;SDS011;31440;48.584;13.460;2022-07-29T13:54:58;2.30;;;2.10;;
45730;SDS011;31440;48.584;13.460;2022-07-29T13:57:24;4.10;;;2.65;;
45730;SDS011;31440;48.584;13.460;2022-07-29T13:59:49;2.63;;;2.33;;
45730;SDS011;31440;48.584;13.460;2022-07-29T14:02:16;2.53;;;2.33;;
45730;SDS011;31440;48.584;13.460;2022-07-29T14:04:41;2.38;;;2.20;;
45730;SDS011;31440;48.584;13.460;2022-07-29T14:07:07;2.30;;;2.10;;
45730;SDS011;31440;48.584;13.460;2022-07-29T14:09:32;2.33;;;2.13;;
45730;SDS011;31440;48.584;13.460;2022-07-29T14:11:58;4.40;;;2.47;;
45730;SDS011;31440;48.584;13.460;2022-07-29T14:14:23;2.60;;;2.40;;
45730;SDS011;31440;48.584;13.460;2022-07-29T14:16:49;2.40;;;2.20;;
45730;SDS011;31440;48.584;13.460;2022-07-29T14:19:15;2.90;;;2.60;;
45730;SDS011;31440;48.584;13.460;2022-07-29T14:21:40;2.63;;;2.42;;
45730;SDS011;31440;48.584;13.460;2022-07-29T14:24:06;2.63;;;2.42;;
45730;SDS011;31440;48.584;13.460;2022-07-29T14:26:32;2.80;;;2.60;;
45730;SDS011;31440;48.584;13.460;2022-07-29T14:28:57;2.72;;;2.53;;
45730;SDS011;31440;48.584;13.460;2022-07-29T14:31:23;3.80;;;2.70;;
45730;SDS011;31440;48.584;13.460;2022-07-29T14:33:48;2.58;;;2.38;;
45730;SDS011;31440;48.584;13.460;2022-07-29T14:36:14;2.67;;;2.47;;
45730;SDS011;31440;48.584;13.460;2022-07-29T14:38:40;3.75;;;2.53;;
45730;SDS011;31440;48.584;13.460;2022-07-29T14:41:06;3.67;;;2.63;;
45730;SDS011;31440;48.584;13.460;2022-07-29T14:43:33;4.82;;;2.92;;
45730;SDS011;31440;48.584;13.460;2022-07-29T14:45:59;5.65;;;2.35;;
45730;SDS011;31440;48.584;13.460;2022-07-29T14:48:25;5.40;;;2.63;;
45730;SDS011;31440;48.584;13.460;2022-07-29T14:50:50;2.88;;;2.42;;
45730;SDS011;31440;48.584;13.460;2022-07-29T14:53:16;2.70;;;2.50;;
45730;SDS011;31440;48.584;13.460;2022-07-29T14:55:41;4.95;;;2.70;;
45730;SDS011;31440;48.584;13.460;2022-07-29T14:58:07;4.35;;;2.53;;
45730;SDS011;31440;48.584;13.460;2022-07-29T15:00:33;3.08;;;2.78;;
45730;SDS011;31440;48.584;13.460;2022-07-29T15:02:59;2.88;;;2.13;;
45730;SDS011;31440;48.584;13.460;2022-07-29T15:05:26;3.60;;;2.42;;
45730;SDS011;31440;48.584;13.460;2022-07-29T15:07:52;3.03;;;2.10;;
45730;SDS011;31440;48.584;13.460;2022-07-29T15:10:17;3.10;;;2.50;;
45730;SDS011;31440;48.584;13.460;2022-07-29T15:12:43;2.85;;;2.38;;
45730;SDS011;31440;48.584;13.460;2022-07-29T15:15:08;3.78;;;3.00;;
45730;SDS011;31440;48.584;13.460;2022-07-29T15:17:34;3.28;;;2.47;;
45730;SDS011;31440;48.584;13.460;2022-07-29T15:20:00;2.55;;;2.35;;
45730;SDS011;31440;48.584;13.460;2022-07-29T15:22:25;3.10;;;2.60;;
45730;SDS011;31440;48.584;13.460;2022-07-29T15:24:51;3.25;;;2.75;;
45730;SDS011;31440;48.584;13.460;2022-07-29T15:27:17;2.97;;;2.47;;
45730;SDS011;31440;48.584;13.460;2022-07-29T15:29:43;2.58;;;2.38;;
45730;SDS011;31440;48.584;13.460;2022-07-29T15:32:09;2.78;;;2.53;;
45730;SDS011;31440;48.584;13.460;2022-07-29T15:34:36;5.40;;;2.45;;
45730;SDS011;31440;48.584;13.460;2022-07-29T15:37:03;2.85;;;2.65;;
45730;SDS011;31440;48.584;13.460;2022-07-29T15:39:29;2.85;;;2.35;;
45730;SDS011;31440;48.584;13.460;2022-07-29T15:41:55;2.85;;;2.60;;
45730;SDS011;31440;48.584;13.460;2022-07-29T15:44:21;2.80;;;2.60;;
45730;SDS011;31440;48.584;13.460;2022-07-29T15:46:47;3.65;;;3.15;;
45730;SDS011;31440;48.584;13.460;2022-07-29T15:49:29;3.40;;;2.97;;
45730;SDS011;31440;48.584;13.460;2022-07-29T15:51:57;4.10;;;2.85;;